LiveATC.Net - Listen to live air traffic control over the Internet!


ICAO: KHUT  IATA: HUT   Airport: Hutchinson Municipal Airport
City: Hutchinson   State/Province: Kansas
Country: United States   Continent: North America
KHUT METAR Weather: KHUT 201052Z AUTO 01006KT 10SM CLR M14/M21 A3065 RMK AO2 SLP400 T11441211
KHUT Flight Activity (FlightAware)
KHUT Airport Info   (iFlightPlanner)
KHUT VFR Sectional Chart   (iFlightPlanner) 
KHUT IFR Low Altitude Chart   (iFlightPlanner) 
KHUT IFR High Altitude Chart   (iFlightPlanner) 

KHUT Ground/Twr
Feed Status: UP   Listeners: 0
Listen in your browser - HTML5 player (in browser, HTML5)
Click here to listen with your own player (launches your MP3 player)
Archive Access: KHUT Ground/Twr
FacilityFrequency
Emergency/Guard121.500
Hutchinson Ground121.900
Hutchinson Tower118.500

NOTICE

Unauthorized use prohibited. See LiveATC.net Terms of Service


Airport/ARTCC Code
Frequency Search
(e.g., 124.400, 128.75)
Site-wide search
 


Browse Feeds
Top 50 Feeds
HF Oceanic Feeds
Coverage Map
Bad Weather Areas

LiveATC FAQ
Offer LiveATC feed
Contact LiveATC.net
Press Inquiries

LiveATC on iPhone
LiveATC on Android

LiveATC Mobile
(Mobile browser)

ATC Audio Archives
Interesting Recordings

LiveATC Forums


Home Page
About LiveATC.net
Make a Donation
Terms of Use
Privacy Policy

Canadian Air Freqs

AIRMETs/SIGMETs

FAA Airport Status
NAS Status
Arrival Demand


Server Software By:
Icecast.org
Liquidsoap